Terminal Aerodrome Forecast
Issued by NWS Twin Cities, MN

Home | Current Version | Previous Version | Graphics & Text | Print | Product List | Glossary On
Versions: 1 2 3 4 5 6 7 8 9 10 11 12 13 14 15 16 17 18 19 20 21 22
000
FTUS43 KMPX 201100
TAFEAU
TAF
KEAU 201132Z 2012/2112 31006KT P6SM SKC
     FM201500 33010KT P6SM BKN035
     FM202200 35007KT P6SM SCT050 SCT250
     FM210200 02004KT P6SM FEW250=

USA.gov is the U.S. government's official web portal to all federal, state and local government web resources and services.